sensor_id;sensor_type;location;lat;lon;timestamp;pressure;altitude;pressure_sealevel;temperature;humidity
58056;BME280;53159;55.152;36.614;2022-09-13T00:02:05;99538.88;;;8.74;100.00
58056;BME280;53159;55.152;36.614;2022-09-13T00:04:35;99533.59;;;8.71;100.00
58056;BME280;53159;55.152;36.614;2022-09-13T00:07:01;99536.88;;;8.64;100.00
58056;BME280;53159;55.152;36.614;2022-09-13T00:09:29;99539.66;;;8.71;100.00
58056;BME280;53159;55.152;36.614;2022-09-13T00:11:56;99533.53;;;8.68;100.00
58056;BME280;53159;55.152;36.614;2022-09-13T00:14:24;99531.09;;;8.73;100.00
58056;BME280;53159;55.152;36.614;2022-09-13T00:16:52;99532.41;;;8.60;100.00
58056;BME280;53159;55.152;36.614;2022-09-13T00:19:19;99536.13;;;8.68;100.00
58056;BME280;53159;55.152;36.614;2022-09-13T00:21:45;99528.34;;;8.68;100.00
58056;BME280;53159;55.152;36.614;2022-09-13T00:24:12;99536.72;;;8.59;100.00
58056;BME280;53159;55.152;36.614;2022-09-13T00:26:40;99532.56;;;8.64;100.00
58056;BME280;53159;55.152;36.614;2022-09-13T00:29:07;99535.88;;;8.60;100.00
58056;BME280;53159;55.152;36.614;2022-09-13T00:31:34;99540.19;;;8.61;100.00
58056;BME280;53159;55.152;36.614;2022-09-13T00:34:01;99538.50;;;8.62;100.00
58056;BME280;53159;55.152;36.614;2022-09-13T00:36:30;99531.63;;;8.62;100.00
58056;BME280;53159;55.152;36.614;2022-09-13T00:38:59;99532.41;;;8.60;100.00
58056;BME280;53159;55.152;36.614;2022-09-13T00:41:26;99521.91;;;8.55;100.00
58056;BME280;53159;55.152;36.614;2022-09-13T00:43:58;99529.75;;;8.57;100.00
58056;BME280;53159;55.152;36.614;2022-09-13T00:49:26;99528.84;;;8.56;100.00
58056;BME280;53159;55.152;36.614;2022-09-13T00:52:04;99519.41;;;8.57;100.00
58056;BME280;53159;55.152;36.614;2022-09-13T00:54:43;99510.50;;;8.48;100.00
58056;BME280;53159;55.152;36.614;2022-09-13T00:57:16;99527.69;;;8.46;100.00
58056;BME280;53159;55.152;36.614;2022-09-13T01:03:01;99517.25;;;8.45;100.00
58056;BME280;53159;55.152;36.614;2022-09-13T01:05:39;99527.75;;;8.48;100.00
58056;BME280;53159;55.152;36.614;2022-09-13T01:08:09;99525.03;;;8.45;100.00
58056;BME280;53159;55.152;36.614;2022-09-13T01:10:42;99528.44;;;8.44;100.00
58056;BME280;53159;55.152;36.614;2022-09-13T01:13:24;99513.00;;;8.45;100.00
58056;BME280;53159;55.152;36.614;2022-09-13T01:15:53;99516.56;;;8.49;100.00
58056;BME280;53159;55.152;36.614;2022-09-13T01:18:32;99515.69;;;8.48;100.00
58056;BME280;53159;55.152;36.614;2022-09-13T01:21:36;99516.56;;;8.49;100.00
58056;BME280;53159;55.152;36.614;2022-09-13T01:24:19;99519.13;;;8.49;100.00
58056;BME280;53159;55.152;36.614;2022-09-13T01:33:00;99518.00;;;8.41;100.00
58056;BME280;53159;55.152;36.614;2022-09-13T01:35:54;99519.09;;;8.47;100.00
58056;BME280;53159;55.152;36.614;2022-09-13T01:44:35;99524.97;;;8.43;100.00
58056;BME280;53159;55.152;36.614;2022-09-13T01:50:11;99515.47;;;8.42;100.00
58056;BME280;53159;55.152;36.614;2022-09-13T01:53:15;99523.16;;;8.39;100.00
58056;BME280;53159;55.152;36.614;2022-09-13T01:55:51;99520.38;;;8.33;100.00
58056;BME280;53159;55.152;36.614;2022-09-13T01:58:40;99523.91;;;8.36;100.00
58056;BME280;53159;55.152;36.614;2022-09-13T02:01:22;99520.63;;;8.42;100.00
58056;BME280;53159;55.152;36.614;2022-09-13T02:03:56;99514.69;;;8.45;100.00
58056;BME280;53159;55.152;36.614;2022-09-13T02:06:45;99521.56;;;8.44;100.00
58056;BME280;53159;55.152;36.614;2022-09-13T02:09:19;99505.72;;;8.33;100.00
58056;BME280;53159;55.152;36.614;2022-09-13T02:11:51;99503.88;;;8.29;100.00
58056;BME280;53159;55.152;36.614;2022-09-13T02:14:27;99503.09;;;8.32;100.00
58056;BME280;53159;55.152;36.614;2022-09-13T02:17:17;99498.91;;;8.35;100.00
58056;BME280;53159;55.152;36.614;2022-09-13T02:19:56;99499.81;;;8.37;100.00
58056;BME280;53159;55.152;36.614;2022-09-13T02:22:37;99486.78;;;8.34;100.00
58056;BME280;53159;55.152;36.614;2022-09-13T02:25:20;99483.91;;;8.25;100.00
58056;BME280;53159;55.152;36.614;2022-09-13T02:27:52;99496.94;;;8.28;100.00
58056;BME280;53159;55.152;36.614;2022-09-13T02:30:20;99495.38;;;8.33;100.00
58056;BME280;53159;55.152;36.614;2022-09-13T02:33:04;99495.22;;;8.29;100.00
58056;BME280;53159;55.152;36.614;2022-09-13T02:35:37;99488.38;;;8.29;100.00
58056;BME280;53159;55.152;36.614;2022-09-13T02:41:22;99477.69;;;8.18;100.00
58056;BME280;53159;55.152;36.614;2022-09-13T02:44:08;99482.91;;;8.20;100.00
58056;BME280;53159;55.152;36.614;2022-09-13T02:47:05;99482.25;;;8.27;100.00
58056;BME280;53159;55.152;36.614;2022-09-13T02:52:52;99479.75;;;8.30;100.00
58056;BME280;53159;55.152;36.614;2022-09-13T02:55:38;99476.16;;;8.25;100.00
58056;BME280;53159;55.152;36.614;2022-09-13T03:00:42;99480.41;;;8.23;100.00
58056;BME280;53159;55.152;36.614;2022-09-13T03:03:11;99481.25;;;8.22;100.00
58056;BME280;53159;55.152;36.614;2022-09-13T03:05:41;99478.75;;;8.25;100.00
58056;BME280;53159;55.152;36.614;2022-09-13T03:08:11;99485.66;;;8.26;100.00
58056;BME280;53159;55.152;36.614;2022-09-13T03:10:56;99484.84;;;8.27;100.00
58056;BME280;53159;55.152;36.614;2022-09-13T03:13:56;99473.69;;;8.28;100.00
58056;BME280;53159;55.152;36.614;2022-09-13T03:16:59;99470.91;;;8.22;100.00
58056;BME280;53159;55.152;36.614;2022-09-13T03:25:12;99458.63;;;8.15;100.00
58056;BME280;53159;55.152;36.614;2022-09-13T03:27:51;99454.38;;;8.17;100.00
58056;BME280;53159;55.152;36.614;2022-09-13T03:30:21;99449.84;;;8.10;100.00
58056;BME280;53159;55.152;36.614;2022-09-13T03:33:02;99431.03;;;8.15;100.00
58056;BME280;53159;55.152;36.614;2022-09-13T03:35:43;99431.72;;;8.08;100.00
58056;BME280;53159;55.152;36.614;2022-09-13T03:38:18;99436.00;;;8.07;100.00
58056;BME280;53159;55.152;36.614;2022-09-13T03:43:49;99443.28;;;8.21;100.00
58056;BME280;53159;55.152;36.614;2022-09-13T03:46:27;99439.84;;;8.20;100.00
58056;BME280;53159;55.152;36.614;2022-09-13T03:49:06;99447.88;;;8.30;100.00
58056;BME280;53159;55.152;36.614;2022-09-13T03:51:35;99450.47;;;8.31;100.00
58056;BME280;53159;55.152;36.614;2022-09-13T03:54:06;99447.97;;;8.33;100.00
58056;BME280;53159;55.152;36.614;2022-09-13T03:56:36;99442.09;;;8.38;100.00
58056;BME280;53159;55.152;36.614;2022-09-13T03:59:02;99442.41;;;8.48;100.00
58056;BME280;53159;55.152;36.614;2022-09-13T04:01:30;99445.81;;;8.47;100.00
58056;BME280;53159;55.152;36.614;2022-09-13T04:03:58;99431.06;;;8.44;100.00
58056;BME280;53159;55.152;36.614;2022-09-13T04:06:25;99438.81;;;8.44;100.00
58056;BME280;53159;55.152;36.614;2022-09-13T04:08:51;99441.66;;;8.52;100.00
58056;BME280;53159;55.152;36.614;2022-09-13T04:11:19;99439.69;;;8.45;100.00
58056;BME280;53159;55.152;36.614;2022-09-13T04:13:46;99445.06;;;8.51;100.00
58056;BME280;53159;55.152;36.614;2022-09-13T04:16:14;99451.84;;;8.47;100.00
58056;BME280;53159;55.152;36.614;2022-09-13T04:18:41;99439.75;;;8.46;100.00
58056;BME280;53159;55.152;36.614;2022-09-13T04:21:08;99452.31;;;8.63;100.00
58056;BME280;53159;55.152;36.614;2022-09-13T04:23:34;99452.44;;;8.67;100.00
58056;BME280;53159;55.152;36.614;2022-09-13T04:26:03;99453.28;;;8.66;100.00
58056;BME280;53159;55.152;36.614;2022-09-13T04:28:30;99455.09;;;8.69;100.00
58056;BME280;53159;55.152;36.614;2022-09-13T04:30:57;99458.53;;;8.69;100.00
58056;BME280;53159;55.152;36.614;2022-09-13T04:33:24;99460.25;;;8.69;100.00
58056;BME280;53159;55.152;36.614;2022-09-13T04:35:58;99457.75;;;8.72;100.00
58056;BME280;53159;55.152;36.614;2022-09-13T04:38:25;99459.53;;;8.75;100.00
58056;BME280;53159;55.152;36.614;2022-09-13T04:40:54;99465.78;;;8.81;100.00
58056;BME280;53159;55.152;36.614;2022-09-13T04:43:22;99461.56;;;8.85;100.00
58056;BME280;53159;55.152;36.614;2022-09-13T04:45:49;99473.72;;;8.87;100.00
58056;BME280;53159;55.152;36.614;2022-09-13T04:48:16;99472.72;;;8.82;100.00
58056;BME280;53159;55.152;36.614;2022-09-13T04:50:42;99468.38;;;8.81;100.00
58056;BME280;53159;55.152;36.614;2022-09-13T04:53:10;99469.69;;;8.67;100.00
58056;BME280;53159;55.152;36.614;2022-09-13T04:55:37;99467.41;;;8.78;100.00
58056;BME280;53159;55.152;36.614;2022-09-13T04:58:05;99467.38;;;8.76;100.00
58056;BME280;53159;55.152;36.614;2022-09-13T05:00:32;99471.78;;;8.80;100.00
58056;BME280;53159;55.152;36.614;2022-09-13T05:03:00;99446.53;;;8.71;100.00
58056;BME280;53159;55.152;36.614;2022-09-13T05:05:28;99455.81;;;8.65;100.00
58056;BME280;53159;55.152;36.614;2022-09-13T05:07:58;99456.06;;;8.73;100.00
58056;BME280;53159;55.152;36.614;2022-09-13T05:10:24;99436.44;;;8.81;100.00
58056;BME280;53159;55.152;36.614;2022-09-13T05:12:52;99452.91;;;8.84;100.00
58056;BME280;53159;55.152;36.614;2022-09-13T05:15:20;99448.38;;;8.76;100.00
58056;BME280;53159;55.152;36.614;2022-09-13T05:17:47;99438.34;;;8.88;100.00
58056;BME280;53159;55.152;36.614;2022-09-13T05:20:14;99435.59;;;8.82;100.00
58056;BME280;53159;55.152;36.614;2022-09-13T05:22:41;99441.94;;;8.93;100.00
58056;BME280;53159;55.152;36.614;2022-09-13T05:25:08;99441.88;;;8.90;100.00
58056;BME280;53159;55.152;36.614;2022-09-13T05:27:37;99435.94;;;8.94;100.00
58056;BME280;53159;55.152;36.614;2022-09-13T05:30:05;99434.59;;;8.77;100.00
58056;BME280;53159;55.152;36.614;2022-09-13T05:32:31;99434.00;;;8.87;100.00
58056;BME280;53159;55.152;36.614;2022-09-13T05:34:58;99438.53;;;8.94;100.00
58056;BME280;53159;55.152;36.614;2022-09-13T05:37:26;99433.34;;;8.94;100.00
58056;BME280;53159;55.152;36.614;2022-09-13T05:39:52;99442.91;;;8.97;100.00
58056;BME280;53159;55.152;36.614;2022-09-13T05:42:19;99439.13;;;8.84;100.00
58056;BME280;53159;55.152;36.614;2022-09-13T05:44:46;99435.88;;;8.91;100.00
58056;BME280;53159;55.152;36.614;2022-09-13T05:47:14;99433.50;;;9.00;100.00
58056;BME280;53159;55.152;36.614;2022-09-13T05:49:43;99442.03;;;8.96;100.00
58056;BME280;53159;55.152;36.614;2022-09-13T05:52:09;99434.78;;;8.83;100.00
58056;BME280;53159;55.152;36.614;2022-09-13T05:54:36;99443.06;;;9.03;100.00
58056;BME280;53159;55.152;36.614;2022-09-13T05:57:04;99443.97;;;9.03;100.00
58056;BME280;53159;55.152;36.614;2022-09-13T05:59:30;99436.13;;;9.02;100.00
58056;BME280;53159;55.152;36.614;2022-09-13T06:01:57;99438.16;;;9.12;100.00
58056;BME280;53159;55.152;36.614;2022-09-13T06:04:26;99443.25;;;9.09;100.00
58056;BME280;53159;55.152;36.614;2022-09-13T06:06:54;99453.72;;;9.14;100.00
58056;BME280;53159;55.152;36.614;2022-09-13T06:09:23;99455.22;;;9.06;100.00
58056;BME280;53159;55.152;36.614;2022-09-13T06:11:51;99450.31;;;9.15;100.00
58056;BME280;53159;55.152;36.614;2022-09-13T06:14:19;99452.25;;;9.24;100.00
58056;BME280;53159;55.152;36.614;2022-09-13T06:16:47;99443.03;;;9.33;100.00
58056;BME280;53159;55.152;36.614;2022-09-13T06:19:15;99433.63;;;9.37;100.00
58056;BME280;53159;55.152;36.614;2022-09-13T06:21:42;99428.47;;;9.39;100.00
58056;BME280;53159;55.152;36.614;2022-09-13T06:24:08;99427.81;;;9.46;100.00
58056;BME280;53159;55.152;36.614;2022-09-13T06:26:36;99414.19;;;9.55;100.00
58056;BME280;53159;55.152;36.614;2022-09-13T06:29:04;99411.81;;;9.64;100.00
58056;BME280;53159;55.152;36.614;2022-09-13T06:31:32;99423.34;;;9.75;100.00
58056;BME280;53159;55.152;36.614;2022-09-13T06:34:00;99424.22;;;9.77;100.00
58056;BME280;53159;55.152;36.614;2022-09-13T06:36:29;99416.72;;;9.88;100.00
58056;BME280;53159;55.152;36.614;2022-09-13T06:38:58;99416.72;;;9.88;100.00
58056;BME280;53159;55.152;36.614;2022-09-13T06:41:26;99422.72;;;9.86;100.00
58056;BME280;53159;55.152;36.614;2022-09-13T06:43:55;99417.50;;;9.84;100.00
58056;BME280;53159;55.152;36.614;2022-09-13T06:46:23;99414.78;;;9.79;100.00
58056;BME280;53159;55.152;36.614;2022-09-13T06:48:52;99414.91;;;9.84;100.00
58056;BME280;53159;55.152;36.614;2022-09-13T06:51:23;99412.63;;;9.98;100.00
58056;BME280;53159;55.152;36.614;2022-09-13T06:53:52;99411.00;;;10.03;100.00
58056;BME280;53159;55.152;36.614;2022-09-13T06:56:27;99407.50;;;10.01;100.00
58056;BME280;53159;55.152;36.614;2022-09-13T06:58:59;99394.78;;;10.12;100.00
58056;BME280;53159;55.152;36.614;2022-09-13T07:01:32;99397.47;;;10.16;99.35
58056;BME280;53159;55.152;36.614;2022-09-13T07:06:30;99402.56;;;10.52;97.71
58056;BME280;53159;55.152;36.614;2022-09-13T07:09:01;99399.03;;;10.48;95.49
58056;BME280;53159;55.152;36.614;2022-09-13T07:11:31;99410.41;;;10.53;95.05
58056;BME280;53159;55.152;36.614;2022-09-13T07:14:00;99395.97;;;10.68;94.88
58056;BME280;53159;55.152;36.614;2022-09-13T07:16:32;99405.50;;;10.69;94.17
58056;BME280;53159;55.152;36.614;2022-09-13T07:19:02;99385.66;;;10.71;93.94
58056;BME280;53159;55.152;36.614;2022-09-13T07:21:32;99382.81;;;10.58;94.08
58056;BME280;53159;55.152;36.614;2022-09-13T07:24:00;99375.28;;;10.71;93.23
58056;BME280;53159;55.152;36.614;2022-09-13T07:26:27;99376.25;;;10.76;93.71
58056;BME280;53159;55.152;36.614;2022-09-13T07:28:56;99376.38;;;10.84;92.59
58056;BME280;53159;55.152;36.614;2022-09-13T07:31:31;99375.31;;;10.74;91.52
58056;BME280;53159;55.152;36.614;2022-09-13T07:34:00;99388.63;;;10.91;91.74
58056;BME280;53159;55.152;36.614;2022-09-13T07:36:29;99377.31;;;10.87;90.87
58056;BME280;53159;55.152;36.614;2022-09-13T07:38:57;99382.34;;;10.78;89.62
58056;BME280;53159;55.152;36.614;2022-09-13T07:41:25;99385.13;;;10.89;89.78
58056;BME280;53159;55.152;36.614;2022-09-13T07:43:54;99372.34;;;11.00;90.51
58056;BME280;53159;55.152;36.614;2022-09-13T07:46:24;99375.06;;;11.06;90.14
58056;BME280;53159;55.152;36.614;2022-09-13T07:48:54;99369.13;;;11.15;90.41
58056;BME280;53159;55.152;36.614;2022-09-13T07:51:24;99389.84;;;11.10;88.25
58056;BME280;53159;55.152;36.614;2022-09-13T07:53:53;99378.50;;;11.05;88.65
58056;BME280;53159;55.152;36.614;2022-09-13T07:56:27;99377.75;;;11.12;88.71
58056;BME280;53159;55.152;36.614;2022-09-13T07:58:54;99380.56;;;11.23;88.42
58056;BME280;53159;55.152;36.614;2022-09-13T08:01:23;99374.47;;;11.22;87.96
58056;BME280;53159;55.152;36.614;2022-09-13T08:03:59;99375.28;;;11.18;87.74
58056;BME280;53159;55.152;36.614;2022-09-13T08:06:29;99367.47;;;11.18;88.17
58056;BME280;53159;55.152;36.614;2022-09-13T08:08:57;99362.03;;;11.03;88.50
58056;BME280;53159;55.152;36.614;2022-09-13T08:11:31;99364.84;;;11.17;88.21
58056;BME280;53159;55.152;36.614;2022-09-13T08:13:59;99363.50;;;10.88;87.16
58056;BME280;53159;55.152;36.614;2022-09-13T08:16:27;99362.06;;;11.04;88.27
58056;BME280;53159;55.152;36.614;2022-09-13T08:18:56;99361.88;;;10.95;87.96
58056;BME280;53159;55.152;36.614;2022-09-13T08:21:24;99360.06;;;10.89;87.45
58056;BME280;53159;55.152;36.614;2022-09-13T08:23:55;99360.16;;;10.95;88.46
58056;BME280;53159;55.152;36.614;2022-09-13T08:26:22;99364.50;;;10.96;88.64
58056;BME280;53159;55.152;36.614;2022-09-13T08:28:58;99354.06;;;10.93;88.46
58056;BME280;53159;55.152;36.614;2022-09-13T08:31:25;99355.69;;;10.87;89.50
58056;BME280;53159;55.152;36.614;2022-09-13T08:33:52;99350.41;;;10.82;89.85
58056;BME280;53159;55.152;36.614;2022-09-13T08:36:22;99353.72;;;10.75;89.98
58056;BME280;53159;55.152;36.614;2022-09-13T08:38:55;99342.50;;;10.77;89.34
58056;BME280;53159;55.152;36.614;2022-09-13T08:44:30;99339.81;;;10.73;89.20
58056;BME280;53159;55.152;36.614;2022-09-13T08:50:20;99347.44;;;10.63;89.64
58056;BME280;53159;55.152;36.614;2022-09-13T08:53:03;99342.47;;;10.74;90.29
58056;BME280;53159;55.152;36.614;2022-09-13T08:58:36;99341.53;;;10.69;89.37
58056;BME280;53159;55.152;36.614;2022-09-13T09:01:19;99345.00;;;10.73;89.83
58056;BME280;53159;55.152;36.614;2022-09-13T09:04:04;99344.13;;;10.71;89.24
58056;BME280;53159;55.152;36.614;2022-09-13T09:06:35;99342.50;;;10.77;91.08
58056;BME280;53159;55.152;36.614;2022-09-13T09:09:11;99345.91;;;10.73;94.91
58056;BME280;53159;55.152;36.614;2022-09-13T09:11:49;99345.13;;;10.79;94.96
58056;BME280;53159;55.152;36.614;2022-09-13T09:14:19;99349.41;;;10.75;95.87
58056;BME280;53159;55.152;36.614;2022-09-13T09:16:55;99340.59;;;10.66;96.64
58056;BME280;53159;55.152;36.614;2022-09-13T09:19:36;99346.41;;;10.55;98.84
58056;BME280;53159;55.152;36.614;2022-09-13T09:22:28;99344.53;;;10.48;100.00
58056;BME280;53159;55.152;36.614;2022-09-13T09:24:58;99334.69;;;10.31;100.00
58056;BME280;53159;55.152;36.614;2022-09-13T09:27:25;99342.63;;;10.38;100.00
58056;BME280;53159;55.152;36.614;2022-09-13T09:29:54;99343.47;;;10.37;100.00
58056;BME280;53159;55.152;36.614;2022-09-13T09:32:51;99341.00;;;10.43;100.00
58056;BME280;53159;55.152;36.614;2022-09-13T09:38:42;99349.53;;;10.37;100.00
58056;BME280;53159;55.152;36.614;2022-09-13T09:41:25;99344.66;;;10.53;100.00
58056;BME280;53159;55.152;36.614;2022-09-13T09:44:16;99347.84;;;10.39;100.00
58056;BME280;53159;55.152;36.614;2022-09-13T09:47:11;99351.44;;;10.46;100.00
58056;BME280;53159;55.152;36.614;2022-09-13T09:49:50;99347.63;;;10.30;100.00
58056;BME280;53159;55.152;36.614;2022-09-13T09:57:59;99337.94;;;10.21;100.00
58056;BME280;53159;55.152;36.614;2022-09-13T10:00:32;99349.31;;;10.28;100.00
58056;BME280;53159;55.152;36.614;2022-09-13T10:03:06;99332.88;;;10.27;100.00
58056;BME280;53159;55.152;36.614;2022-09-13T10:05:35;99340.59;;;10.26;100.00
58056;BME280;53159;55.152;36.614;2022-09-13T10:08:06;99340.88;;;10.38;100.00
58056;BME280;53159;55.152;36.614;2022-09-13T10:10:43;99325.53;;;10.47;100.00
58056;BME280;53159;55.152;36.614;2022-09-13T10:13:19;99327.16;;;10.42;100.00
58056;BME280;53159;55.152;36.614;2022-09-13T10:15:54;99332.25;;;10.38;100.00
58056;BME280;53159;55.152;36.614;2022-09-13T10:18:27;99331.66;;;10.53;100.00
58056;BME280;53159;55.152;36.614;2022-09-13T10:21:06;99326.34;;;10.45;100.00
58056;BME280;53159;55.152;36.614;2022-09-13T10:23:34;99331.41;;;10.39;100.00
58056;BME280;53159;55.152;36.614;2022-09-13T10:31:30;99320.53;;;10.17;100.00
58056;BME280;53159;55.152;36.614;2022-09-13T10:34:02;99316.19;;;10.14;100.00
58056;BME280;53159;55.152;36.614;2022-09-13T10:36:33;99306.44;;;10.03;100.00
58056;BME280;53159;55.152;36.614;2022-09-13T10:39:04;99310.03;;;10.09;100.00
58056;BME280;53159;55.152;36.614;2022-09-13T10:41:35;99303.78;;;9.99;100.00
58056;BME280;53159;55.152;36.614;2022-09-13T10:44:31;99304.94;;;10.14;100.00
58056;BME280;53159;55.152;36.614;2022-09-13T10:47:03;99304.03;;;10.12;100.00
58056;BME280;53159;55.152;36.614;2022-09-13T10:49:46;99300.56;;;10.11;100.00
58056;BME280;53159;55.152;36.614;2022-09-13T10:52:32;99298.00;;;10.13;100.00
58056;BME280;53159;55.152;36.614;2022-09-13T10:55:36;99290.91;;;10.04;100.00
58056;BME280;53159;55.152;36.614;2022-09-13T11:00:46;99286.53;;;10.02;100.00
58056;BME280;53159;55.152;36.614;2022-09-13T11:12:12;99282.28;;;10.05;100.00
58056;BME280;53159;55.152;36.614;2022-09-13T11:23:54;99264.56;;;10.27;100.00
58056;BME280;53159;55.152;36.614;2022-09-13T11:49:15;99229.84;;;10.64;100.00
58056;BME280;53159;55.152;36.614;2022-09-13T11:57:13;99236.88;;;10.72;100.00
58056;BME280;53159;55.152;36.614;2022-09-13T11:59:52;99234.09;;;10.61;100.00
58056;BME280;53159;55.152;36.614;2022-09-13T12:02:26;99229.97;;;10.72;100.00
58056;BME280;53159;55.152;36.614;2022-09-13T12:05:06;99216.97;;;10.71;100.00
58056;BME280;53159;55.152;36.614;2022-09-13T12:07:42;99221.34;;;10.73;100.00
58056;BME280;53159;55.152;36.614;2022-09-13T12:10:37;99220.28;;;10.62;100.00
58056;BME280;53159;55.152;36.614;2022-09-13T12:13:11;99217.09;;;10.78;100.00
58056;BME280;53159;55.152;36.614;2022-09-13T12:15:43;99210.22;;;10.82;100.00
58056;BME280;53159;55.152;36.614;2022-09-13T12:18:23;99214.47;;;10.77;100.00
58056;BME280;53159;55.152;36.614;2022-09-13T12:20:56;99210.13;;;10.76;100.00
58056;BME280;53159;55.152;36.614;2022-09-13T12:23:32;99209.25;;;10.75;100.00
58056;BME280;53159;55.152;36.614;2022-09-13T12:26:20;99195.47;;;10.78;100.00
58056;BME280;53159;55.152;36.614;2022-09-13T12:28:55;99197.22;;;10.80;100.00
58056;BME280;53159;55.152;36.614;2022-09-13T12:31:28;99200.56;;;10.73;100.00
58056;BME280;53159;55.152;36.614;2022-09-13T12:33:57;99189.34;;;10.74;100.00
58056;BME280;53159;55.152;36.614;2022-09-13T12:36:47;99198.06;;;10.78;100.00
58056;BME280;53159;55.152;36.614;2022-09-13T12:43:07;99188.44;;;10.72;100.00
58056;BME280;53159;55.152;36.614;2022-09-13T12:54:26;99183.44;;;10.86;100.00
58056;BME280;53159;55.152;36.614;2022-09-13T13:00:21;99197.38;;;10.91;100.00
58056;BME280;53159;55.152;36.614;2022-09-13T13:02:56;99193.84;;;10.86;100.00
58056;BME280;53159;55.152;36.614;2022-09-13T13:13:39;99193.16;;;10.96;100.00
58056;BME280;53159;55.152;36.614;2022-09-13T13:16:34;99193.06;;;10.92;100.00
58056;BME280;53159;55.152;36.614;2022-09-13T13:19:04;99189.53;;;10.87;100.00
58056;BME280;53159;55.152;36.614;2022-09-13T13:21:39;99186.84;;;10.82;100.00
58056;BME280;53159;55.152;36.614;2022-09-13T13:32:07;99184.88;;;10.66;100.00
58056;BME280;53159;55.152;36.614;2022-09-13T13:39:38;99176.25;;;10.68;100.00
58056;BME280;53159;55.152;36.614;2022-09-13T13:49:51;99175.09;;;10.51;100.00
58056;BME280;53159;55.152;36.614;2022-09-13T13:57:39;99158.66;;;10.50;100.00
58056;BME280;53159;55.152;36.614;2022-09-13T14:00:20;99157.81;;;10.50;100.00
58056;BME280;53159;55.152;36.614;2022-09-13T14:05:40;99151.47;;;10.35;100.00
58056;BME280;53159;55.152;36.614;2022-09-13T14:08:34;99147.94;;;10.31;100.00
58056;BME280;53159;55.152;36.614;2022-09-13T14:19:56;99154.47;;;10.11;100.00
58056;BME280;53159;55.152;36.614;2022-09-13T14:22:25;99149.06;;;9.98;100.00
58056;BME280;53159;55.152;36.614;2022-09-13T14:24:57;99148.13;;;9.93;100.00
58056;BME280;53159;55.152;36.614;2022-09-13T14:27:35;99147.22;;;9.91;100.00
58056;BME280;53159;55.152;36.614;2022-09-13T14:30:16;99137.59;;;9.86;100.00
58056;BME280;53159;55.152;36.614;2022-09-13T14:32:49;99132.13;;;9.70;100.00
58056;BME280;53159;55.152;36.614;2022-09-13T14:35:32;99129.47;;;9.67;100.00
58056;BME280;53159;55.152;36.614;2022-09-13T14:38:29;99121.63;;;9.62;100.00
58056;BME280;53159;55.152;36.614;2022-09-13T14:41:12;99122.44;;;9.61;100.00
58056;BME280;53159;55.152;36.614;2022-09-13T14:43:42;99111.03;;;9.51;100.00
58056;BME280;53159;55.152;36.614;2022-09-13T14:46:17;99108.53;;;9.56;100.00
58056;BME280;53159;55.152;36.614;2022-09-13T14:51:32;99121.34;;;9.48;100.00
58056;BME280;53159;55.152;36.614;2022-09-13T14:54:20;99110.06;;;9.46;100.00
58056;BME280;53159;55.152;36.614;2022-09-13T14:56:57;99111.84;;;9.49;100.00
58056;BME280;53159;55.152;36.614;2022-09-13T14:59:31;99108.16;;;9.36;100.00
58056;BME280;53159;55.152;36.614;2022-09-13T15:02:06;99106.66;;;9.47;100.00
58056;BME280;53159;55.152;36.614;2022-09-13T15:04:49;99107.47;;;9.46;100.00
58056;BME280;53159;55.152;36.614;2022-09-13T15:07:20;99105.84;;;9.50;100.00
58056;BME280;53159;55.152;36.614;2022-09-13T15:09:49;99108.25;;;9.41;100.00
58056;BME280;53159;55.152;36.614;2022-09-13T15:12:24;99106.38;;;9.33;100.00
58056;BME280;53159;55.152;36.614;2022-09-13T15:15:21;99111.69;;;9.40;100.00
58056;BME280;53159;55.152;36.614;2022-09-13T15:18:05;99116.78;;;9.36;100.00
58056;BME280;53159;55.152;36.614;2022-09-13T15:20:58;99108.88;;;9.30;100.00
58056;BME280;53159;55.152;36.614;2022-09-13T15:23:38;99114.00;;;9.27;100.00
58056;BME280;53159;55.152;36.614;2022-09-13T15:26:09;99112.25;;;9.26;100.00
58056;BME280;53159;55.152;36.614;2022-09-13T15:31:20;99106.97;;;9.22;100.00
58056;BME280;53159;55.152;36.614;2022-09-13T15:33:47;99109.47;;;9.17;100.00
58056;BME280;53159;55.152;36.614;2022-09-13T15:41:42;99081.50;;;8.99;100.00
58056;BME280;53159;55.152;36.614;2022-09-13T15:44:16;99091.06;;;9.04;100.00
58056;BME280;53159;55.152;36.614;2022-09-13T15:46:55;99087.75;;;9.09;100.00
58056;BME280;53159;55.152;36.614;2022-09-13T15:49:24;99083.44;;;9.11;100.00
58056;BME280;53159;55.152;36.614;2022-09-13T15:51:54;99084.06;;;8.99;100.00
58056;BME280;53159;55.152;36.614;2022-09-13T15:54:25;99081.50;;;9.00;100.00
58056;BME280;53159;55.152;36.614;2022-09-13T15:56:53;99080.53;;;8.95;100.00
58056;BME280;53159;55.152;36.614;2022-09-13T15:59:21;99079.75;;;8.99;100.00
58056;BME280;53159;55.152;36.614;2022-09-13T16:01:50;99071.06;;;8.96;100.00
58056;BME280;53159;55.152;36.614;2022-09-13T16:04:18;99071.09;;;8.97;100.00
58056;BME280;53159;55.152;36.614;2022-09-13T16:06:46;99068.47;;;8.96;100.00
58056;BME280;53159;55.152;36.614;2022-09-13T16:09:24;99063.25;;;8.93;100.00
58056;BME280;53159;55.152;36.614;2022-09-13T16:11:53;99060.63;;;8.91;100.00
58056;BME280;53159;55.152;36.614;2022-09-13T16:14:21;99070.84;;;8.85;100.00
58056;BME280;53159;55.152;36.614;2022-09-13T16:16:48;99073.47;;;8.86;100.00
58056;BME280;53159;55.152;36.614;2022-09-13T16:19:20;99067.44;;;8.87;100.00
58056;BME280;53159;55.152;36.614;2022-09-13T16:21:48;99059.56;;;8.83;100.00
58056;BME280;53159;55.152;36.614;2022-09-13T16:24:17;99059.59;;;8.84;100.00
58056;BME280;53159;55.152;36.614;2022-09-13T16:26:46;99056.06;;;8.81;100.00